Time;durP1;ratioP1;P1;durP2;ratioP2;P2;SDS_P1;SDS_P2;PMS_P1;PMS_P2;Temp;Humidity;BMP_temperature;BMP_pressure;BME280_temperature;BME280_humidity;BME280_pressure;Samples;Min_cycle;Max_cycle;Signal;HPM_P1;HPM_P2
2022/09/08 00:01:49;;;;;;;18.35;3.67;;;15.90;99.90;;;15.09;100.00;100452.22;4169762;28;20029;-75
2022/09/08 00:03:51;;;;;;;15.40;2.88;;;15.80;99.90;;;15.15;100.00;100475.34;4179950;28;20032;-75
2022/09/08 00:06:05;;;;;;;22.00;3.88;;;15.80;99.90;;;14.97;100.00;100448.44;4185194;28;20025;-75
2022/09/08 00:08:05;;;;;;;19.23;3.88;;;15.80;99.90;;;14.95;100.00;100451.28;4176991;28;20025;-75
2022/09/08 00:10:07;;;;;;;20.30;3.58;;;15.80;99.90;;;15.09;100.00;100462.84;4173078;28;20032;-75
2022/09/08 00:12:11;;;;;;;21.05;4.45;;;15.80;99.90;;;15.14;100.00;100449.00;4184097;28;20037;-75
2022/09/08 00:14:12;;;;;;;16.73;2.70;;;15.90;99.90;;;15.20;100.00;100442.91;4185662;28;20036;-75
2022/09/08 00:16:18;;;;;;;23.98;4.53;;;15.90;99.90;;;15.23;100.00;100437.19;4185561;28;20504;-75
2022/09/08 00:18:19;;;;;;;21.48;3.17;;;16.00;99.90;;;15.31;100.00;100443.19;4185040;28;20036;-75
2022/09/08 00:20:20;;;;;;;12.18;3.70;;;16.10;99.90;;;15.40;100.00;100455.31;4183975;28;20025;-75
2022/09/08 00:22:21;;;;;;;19.48;3.35;;;16.10;99.90;;;15.43;100.00;100449.63;4185284;28;20056;-75
2022/09/08 00:24:22;;;;;;;15.98;3.10;;;16.20;99.90;;;15.40;100.00;100441.19;4185340;28;20051;-75
2022/09/08 00:26:23;;;;;;;16.88;3.15;;;16.20;99.90;;;15.44;100.00;100450.44;4178957;28;20029;-75
2022/09/08 00:28:24;;;;;;;16.45;3.10;;;16.30;99.90;;;15.57;100.00;100463.00;4185235;28;20638;-75
2022/09/08 00:30:25;;;;;;;9.30;2.30;;;16.30;99.90;;;15.54;100.00;100455.41;4184274;28;20021;-75
2022/09/08 00:32:26;;;;;;;11.23;3.25;;;16.30;99.90;;;15.57;100.00;100447.88;4185310;28;20024;-75
2022/09/08 00:34:28;;;;;;;16.05;3.33;;;16.30;99.90;;;15.52;100.00;100433.53;4185236;28;20032;-75
2022/09/08 00:36:31;;;;;;;14.55;2.40;;;16.30;99.90;;;15.66;100.00;100453.84;4183795;28;20029;-75
2022/09/08 00:38:32;;;;;;;15.63;2.60;;;16.40;99.90;;;15.62;100.00;100457.94;4200574;28;20059;-75
2022/09/08 00:40:45;;;;;;;18.77;3.10;;;16.40;99.90;;;15.57;100.00;100444.41;4183826;28;20044;-75
2022/09/08 00:42:46;;;;;;;15.10;2.58;;;16.40;99.90;;;15.66;100.00;100469.81;4185200;28;20498;-75
2022/09/08 00:44:51;;;;;;;14.95;2.30;;;16.30;99.90;;;15.57;100.00;100449.72;4200473;28;20078;-75
2022/09/08 00:46:55;;;;;;;10.90;2.40;;;16.30;99.90;;;15.61;100.00;100449.13;4185288;28;20085;-75
2022/09/08 00:49:17;;;;;;;14.85;2.75;;;16.40;99.90;;;15.60;100.00;100438.69;4184234;28;20029;-75
2022/09/08 00:51:19;;;;;;;10.77;3.00;;;16.40;99.90;;;15.68;100.00;100452.63;4183772;28;20029;-75
2022/09/08 00:53:20;;;;;;;14.70;2.50;;;16.40;99.90;;;15.60;100.00;100444.00;4185188;28;20586;-75
2022/09/08 00:55:21;;;;;;;15.55;3.47;;;16.40;99.90;;;15.50;100.00;100444.38;4185188;28;20033;-75
2022/09/08 00:57:22;;;;;;;14.35;2.70;;;16.30;99.90;;;15.63;100.00;100460.38;4167259;28;20469;-75
2022/09/08 00:59:25;;;;;;;12.43;2.50;;;16.30;99.90;;;15.46;100.00;100425.31;4184961;28;20036;-75
2022/09/08 01:01:26;;;;;;;18.50;3.55;;;16.40;99.90;;;15.58;100.00;100438.06;4184273;28;20021;-75
2022/09/08 01:03:27;;;;;;;12.85;3.40;;;16.40;99.90;;;15.66;100.00;100459.19;4184154;28;20025;-76
2022/09/08 01:05:57;;;;;;;22.65;4.57;;;16.40;99.90;;;15.77;100.00;100456.00;4183888;28;20056;-75
2022/09/08 01:13:14;;;;;;;21.38;3.70;;;16.40;99.90;;;15.57;100.00;100439.06;4184984;28;20047;-75
2022/09/08 01:15:26;;;;;;;14.23;3.13;;;16.40;99.90;;;15.68;100.00;100451.84;4187515;28;20037;-75
2022/09/08 01:53:19;;;;;;;;;;;;;;;;;;;;;
2022/09/08 01:56:39;;;;;;;;;;;;;;;;;;;;;
2022/09/08 02:06:46;;;;;;;;;;;;;;;;;;;;;
2022/09/08 02:10:06;;;;;;;;;;;;;;;;;;;;;
2022/09/08 02:13:13;;;;;;;;;;;;;;;;;;;;;
2022/09/08 02:39:32;;;;;;;;;;;;;;;;;;;;;
2022/09/08 03:09:59;;;;;;;;;;;;;;;;;;;;;
2022/09/08 15:27:28;;;;;;;14.00;2.55;;;18.90;99.90;;;17.79;100.00;100651.28;5213242;22;1384362;-74
2022/09/08 15:29:45;;;;;;;11.63;2.15;;;18.80;99.90;;;17.74;100.00;100619.06;5210900;22;20003;-74
2022/09/08 15:32:22;;;;;;;9.52;2.28;;;18.80;99.90;;;18.23;100.00;100641.59;5250105;22;20078;-74
2022/09/08 15:34:36;;;;;;;10.55;2.30;;;19.00;99.90;;;18.60;100.00;100613.41;5216242;22;20003;-74
2022/09/08 15:37:14;;;;;;;16.13;2.88;;;19.40;99.90;;;18.80;100.00;100629.34;5222413;22;20003;-75
2022/09/08 15:39:49;;;;;;;13.45;3.05;;;19.40;99.90;;;18.58;100.00;100623.47;5226112;22;20082;-74
2022/09/08 15:42:39;;;;;;;15.77;2.42;;;19.40;99.90;;;18.50;100.00;100623.69;5224483;22;20006;-74
2022/09/08 15:44:51;;;;;;;16.80;2.95;;;19.30;99.90;;;18.56;100.00;100638.06;5222636;22;20395;-74
2022/09/08 15:47:31;;;;;;;13.88;3.20;;;19.30;99.90;;;18.56;100.00;100620.19;5250361;22;20013;-75
2022/09/08 15:49:40;;;;;;;19.33;3.53;;;19.30;99.90;;;18.34;100.00;100628.66;5250049;22;20030;-74
2022/09/08 15:52:02;;;;;;;16.70;3.28;;;19.20;99.90;;;18.06;100.00;100597.69;5221894;22;20042;-74
2022/09/08 15:54:30;;;;;;;17.30;3.35;;;19.00;99.90;;;18.11;100.00;100624.56;5226227;22;20010;-74
2022/09/08 15:57:11;;;;;;;14.07;3.20;;;18.90;99.90;;;18.26;100.00;100637.69;5222614;22;20003;-74
2022/09/08 16:00:12;;;;;;;15.45;4.25;;;18.90;99.90;;;18.34;100.00;100639.34;5222584;22;20015;-74
2022/09/08 16:02:54;;;;;;;12.70;2.72;;;19.00;99.90;;;18.10;100.00;100598.06;5177980;22;20031;-74
2022/09/08 16:05:16;;;;;;;15.40;3.08;;;19.00;99.90;;;18.07;100.00;100617.19;5222414;22;20031;-74
2022/09/08 16:07:59;;;;;;;12.48;2.78;;;19.00;99.90;;;18.23;100.00;100622.91;5224102;22;20070;-75
2022/09/08 16:10:14;;;;;;;15.63;2.55;;;19.00;99.90;;;18.38;100.00;100625.34;5249968;22;20027;-74
2022/09/08 16:12:19;;;;;;;15.70;3.50;;;19.10;99.90;;;18.44;100.00;100604.97;5249948;22;20049;-74
2022/09/08 16:14:26;;;;;;;16.92;3.63;;;19.20;99.90;;;18.53;100.00;100628.63;5222569;22;20003;-74
2022/09/08 16:16:45;;;;;;;20.15;2.97;;;19.20;99.90;;;18.42;100.00;100629.25;5250057;22;20009;-74
2022/09/08 16:18:54;;;;;;;13.90;2.78;;;19.20;99.90;;;18.36;100.00;100621.25;5249767;22;20003;-74
2022/09/08 16:21:22;;;;;;;14.65;3.40;;;19.10;99.90;;;18.47;100.00;100632.09;5222112;22;20071;-74
2022/09/08 16:23:38;;;;;;;12.98;3.03;;;19.20;99.90;;;18.42;100.00;100605.22;5223855;22;20093;-74
2022/09/08 16:25:58;;;;;;;9.07;2.78;;;19.20;99.90;;;18.62;100.00;100624.69;5249866;22;20030;-74
2022/09/08 16:28:02;;;;;;;15.52;3.03;;;19.30;99.90;;;18.78;100.00;100632.25;5198504;22;20019;-74
2022/09/08 16:30:24;;;;;;;17.08;2.75;;;19.40;99.90;;;18.75;100.00;100623.81;5222870;22;20054;-74
2022/09/08 16:32:46;;;;;;;11.90;2.72;;;19.50;99.90;;;18.88;100.00;100639.78;5225429;22;19999;-74
2022/09/08 16:35:09;;;;;;;13.77;2.08;;;19.50;99.90;;;18.88;100.00;100638.97;5222543;22;20025;-74
2022/09/08 16:37:09;;;;;;;15.00;2.53;;;19.60;99.90;;;18.77;99.92;100622.56;5250042;22;20002;-74
2022/09/08 16:39:22;;;;;;;10.65;2.28;;;19.60;99.90;;;18.82;95.28;100632.63;5250179;22;20007;-74
2022/09/08 16:41:47;;;;;;;14.15;3.25;;;19.50;99.90;;;18.77;97.45;100646.63;5197146;22;20495;-74
2022/09/08 16:43:56;;;;;;;12.52;2.88;;;19.50;99.90;;;18.76;95.18;100644.16;5249854;22;20124;-74
2022/09/08 16:46:13;;;;;;;10.35;2.45;;;19.50;99.90;;;18.68;93.07;100639.88;5249865;22;20078;-74
2022/09/08 16:48:41;;;;;;;11.88;2.92;;;19.50;99.90;;;18.53;94.14;100622.44;5197790;22;20090;-74
2022/09/08 16:51:15;;;;;;;11.48;2.95;;;19.40;99.90;;;18.63;95.64;100639.69;5224071;22;20011;-74
2022/09/08 16:53:32;;;;;;;12.02;2.10;;;19.40;99.90;;;18.71;96.37;100652.00;5222069;22;20007;-74
2022/09/08 16:55:41;;;;;;;14.60;2.10;;;19.40;99.90;;;18.61;95.87;100643.59;5222343;22;20014;-74
2022/09/08 16:58:18;;;;;;;14.60;2.88;;;19.40;99.90;;;18.67;96.20;100646.25;5222444;22;20088;-74
2022/09/08 17:00:23;;;;;;;19.20;2.92;;;19.40;99.90;;;18.62;99.28;100626.53;5249700;22;20006;-74
2022/09/08 17:03:11;;;;;;;13.07;2.80;;;19.40;99.90;;;18.79;100.00;100647.22;5222799;22;20007;-74
2022/09/08 17:05:25;;;;;;;14.32;3.08;;;19.40;99.90;;;18.65;98.41;100629.59;5224481;22;20041;-74
2022/09/08 17:07:32;;;;;;;13.30;2.85;;;19.40;99.90;;;18.56;98.75;100627.38;5222379;22;20013;-74
2022/09/08 17:10:02;;;;;;;13.20;3.55;;;19.40;99.90;;;18.56;98.85;100622.03;5197244;22;20004;-74
2022/09/08 17:12:35;;;;;;;10.32;2.95;;;19.40;99.90;;;18.29;100.00;100615.91;5249855;22;20056;-74
2022/09/08 17:14:36;;;;;;;12.85;3.42;;;19.30;99.90;;;18.19;100.00;100628.88;5225878;22;20057;-74
2022/09/08 17:17:06;;;;;;;11.93;3.05;;;19.20;99.90;;;18.45;100.00;100642.19;5222140;22;20004;-74
2022/09/08 17:19:29;;;;;;;18.27;3.47;;;19.20;99.90;;;18.29;100.00;100612.41;5221507;22;20489;-75
2022/09/08 17:21:45;;;;;;;17.27;3.55;;;19.20;99.90;;;18.38;100.00;100654.72;5226027;22;20025;-74
2022/09/08 17:23:55;;;;;;;18.05;3.17;;;19.20;99.90;;;18.28;100.00;100642.84;5222327;22;19999;-74
2022/09/08 17:26:14;;;;;;;8.88;2.75;;;19.00;99.90;;;18.10;100.00;100649.63;5249431;22;20003;-74
2022/09/08 17:28:18;;;;;;;17.38;2.97;;;18.90;99.90;;;17.86;100.00;100646.78;5251058;22;19999;-74
2022/09/08 17:30:21;;;;;;;19.50;4.65;;;18.70;99.90;;;17.64;100.00;100636.31;5251429;22;20055;-74
2022/09/08 17:33:17;;;;;;;13.95;3.97;;;18.60;99.90;;;17.75;100.00;100653.53;5251070;22;20042;-74
2022/09/08 17:35:42;;;;;;;12.10;2.65;;;18.50;99.90;;;17.67;100.00;100643.91;5245885;22;20338;-74
2022/09/08 17:38:23;;;;;;;15.60;3.88;;;18.50;99.90;;;17.59;100.00;100636.06;5202296;22;20068;-74
2022/09/08 17:40:40;;;;;;;15.93;2.92;;;18.50;99.90;;;17.69;100.00;100628.50;5226384;22;20056;-74
2022/09/08 17:43:20;;;;;;;13.18;3.47;;;18.50;99.90;;;17.79;100.00;100645.94;5225610;22;20034;-74
2022/09/08 17:45:36;;;;;;;13.75;3.20;;;18.50;99.90;;;17.62;100.00;100619.66;5250714;22;20323;-74
2022/09/08 17:48:09;;;;;;;18.77;3.25;;;18.50;99.90;;;17.81;100.00;100654.56;5224254;22;20008;-74
2022/09/08 17:50:27;;;;;;;12.38;2.80;;;18.50;99.90;;;17.80;100.00;100650.28;5223422;22;20014;-74
2022/09/08 17:52:37;;;;;;;21.13;3.63;;;18.50;99.90;;;17.79;100.00;100632.59;5225442;22;19999;-74
2022/09/08 17:54:44;;;;;;;11.80;3.22;;;18.50;99.90;;;18.01;100.00;100642.06;5198212;22;20461;-74
2022/09/08 17:57:09;;;;;;;14.73;2.75;;;18.60;99.90;;;18.10;100.00;100654.13;5251281;22;19998;-74
2022/09/08 17:59:20;;;;;;;17.10;3.45;;;18.70;99.90;;;18.02;100.00;100641.00;5197680;22;20008;-74
2022/09/08 18:01:26;;;;;;;15.18;3.25;;;18.70;99.90;;;17.97;100.00;100630.13;5250857;22;20077;-74
2022/09/08 18:04:00;;;;;;;15.13;3.00;;;18.80;99.90;;;17.98;100.00;100650.47;5251052;22;20003;-74
2022/09/08 18:06:34;;;;;;;17.48;4.25;;;18.70;99.90;;;17.90;100.00;100648.00;5250460;22;20438;-74
2022/09/08 18:08:42;;;;;;;14.57;3.22;;;18.60;99.90;;;17.61;100.00;100628.72;5250760;22;20438;-74
2022/09/08 18:10:51;;;;;;;15.88;3.00;;;18.50;99.90;;;17.55;100.00;100653.53;5224251;22;20070;-74
2022/09/08 18:13:42;;;;;;;12.00;3.17;;;18.30;99.90;;;17.54;100.00;100651.88;5223048;22;20011;-74
2022/09/08 18:16:00;;;;;;;12.65;3.05;;;18.30;99.90;;;17.42;100.00;100625.97;5250706;22;19999;-74
2022/09/08 18:18:40;;;;;;;13.98;3.03;;;18.20;99.90;;;17.30;100.00;100644.41;5224731;22;20003;-74
2022/09/08 18:20:41;;;;;;;12.18;2.85;;;18.10;99.90;;;17.15;100.00;100633.09;5220557;22;20367;-74
2022/09/08 18:23:34;;;;;;;18.98;4.43;;;18.00;99.90;;;16.95;100.00;100634.88;5250644;22;20007;-74
2022/09/08 18:25:50;;;;;;;17.50;3.67;;;17.90;99.90;;;17.07;100.00;100649.28;5225757;22;20007;-74
2022/09/08 18:28:54;;;;;;;12.65;3.40;;;17.80;99.90;;;17.01;100.00;100637.59;5225081;22;20019;-74
2022/09/08 18:31:16;;;;;;;14.68;2.38;;;17.80;99.90;;;17.14;100.00;100663.47;5121606;23;20016;-74
2022/09/08 18:34:04;;;;;;;13.60;3.30;;;17.80;99.90;;;17.12;100.00;100660.16;5121859;23;20555;-74
2022/09/08 18:36:52;;;;;;;11.27;2.88;;;17.80;99.90;;;16.84;100.00;100636.31;5166409;22;20135;-74
2022/09/08 18:38:54;;;;;;;14.55;2.63;;;17.70;99.90;;;16.84;100.00;100641.63;5250443;22;20007;-74
2022/09/08 18:41:10;;;;;;;13.63;2.90;;;17.70;99.90;;;16.98;100.00;100659.31;5251248;22;20077;-74
2022/09/08 18:43:54;;;;;;;15.30;2.58;;;17.70;99.90;;;16.78;100.00;100631.78;5250486;22;19998;-74
2022/09/08 18:46:29;;;;;;;17.38;3.25;;;17.60;99.90;;;16.77;100.00;100661.25;5249765;22;20007;-74
2022/09/08 18:48:33;;;;;;;14.57;2.95;;;17.50;99.90;;;16.78;100.00;100673.56;5250477;22;20006;-74
2022/09/08 18:50:46;;;;;;;19.58;3.50;;;17.50;99.90;;;16.76;100.00;100673.75;5197090;22;20031;-74
2022/09/08 18:53:08;;;;;;;12.30;3.33;;;17.40;99.90;;;16.72;100.00;100672.50;5222990;22;20025;-74
2022/09/08 18:55:35;;;;;;;17.40;4.25;;;17.40;99.90;;;16.63;100.00;100676.38;5250548;22;19999;-74
2022/09/08 18:57:36;;;;;;;20.15;3.17;;;17.30;99.90;;;16.51;100.00;100657.41;5223205;22;20003;-74
2022/09/08 19:00:14;;;;;;;18.17;4.68;;;17.30;99.90;;;16.43;100.00;100654.06;5250596;22;20056;-74
2022/09/08 19:02:27;;;;;;;11.60;3.22;;;17.20;99.90;;;16.40;100.00;100665.09;5198442;22;20055;-74
2022/09/08 19:05:07;;;;;;;17.05;3.80;;;17.10;99.90;;;16.22;100.00;100656.84;5250597;22;20002;-74
2022/09/08 19:07:47;;;;;;;12.38;3.10;;;17.00;99.90;;;16.21;100.00;100673.81;5226921;22;20049;-74
2022/09/08 19:10:26;;;;;;;14.77;2.85;;;16.90;99.90;;;16.10;100.00;100669.81;5223421;22;20038;-74
2022/09/08 19:12:47;;;;;;;9.98;3.35;;;16.80;99.90;;;15.89;100.00;100651.22;5250682;22;19999;-74
2022/09/08 19:14:47;;;;;;;23.17;3.38;;;16.70;99.90;;;15.95;100.00;100672.56;5225641;22;20057;-74
2022/09/08 19:17:26;;;;;;;21.52;3.35;;;16.60;99.90;;;15.91;100.00;100683.81;5250287;22;20368;-74
2022/09/08 19:19:35;;;;;;;14.77;3.83;;;16.60;99.90;;;15.83;100.00;100675.97;5250289;22;20007;-74
2022/09/08 19:21:36;;;;;;;16.52;3.78;;;16.50;99.90;;;15.86;100.00;100694.22;5223184;22;20108;-74
2022/09/08 19:23:39;;;;;;;13.73;3.17;;;16.50;99.90;;;15.76;100.00;100683.88;5250263;22;20009;-74
2022/09/08 19:25:43;;;;;;;13.95;3.10;;;16.40;99.90;;;15.58;100.00;100664.06;5223036;22;20076;-74
2022/09/08 19:28:25;;;;;;;16.27;3.40;;;16.40;99.90;;;15.67;100.00;100693.00;5222451;22;20011;-74
2022/09/08 19:30:37;;;;;;;21.33;3.63;;;16.40;99.90;;;15.73;100.00;100688.75;5200607;22;20006;-74
2022/09/08 19:32:54;;;;;;;17.08;3.63;;;16.30;99.90;;;15.62;100.00;100668.00;5250324;22;20002;-74
2022/09/08 19:35:30;;;;;;;14.55;3.50;;;16.40;99.90;;;15.71;100.00;100686.28;5222353;22;20115;-74
2022/09/08 19:37:46;;;;;;;16.33;3.40;;;16.40;99.90;;;15.90;100.00;100696.28;5222623;22;20010;-74
2022/09/08 19:40:12;;;;;;;20.83;3.33;;;16.50;99.90;;;16.01;100.00;100701.06;5222255;22;20068;-74
2022/09/08 19:43:14;;;;;;;15.45;3.47;;;16.60;99.90;;;16.08;100.00;100698.47;5250368;22;20055;-74
2022/09/08 19:45:55;;;;;;;16.08;3.53;;;16.70;99.90;;;16.02;100.00;100680.63;5195877;22;20082;-74
2022/09/08 19:48:15;;;;;;;17.25;4.03;;;16.80;99.90;;;16.08;100.00;100687.81;5250120;22;20003;-74
2022/09/08 19:50:28;;;;;;;17.08;4.15;;;16.80;99.90;;;16.10;100.00;100685.00;5223639;22;20007;-74
2022/09/08 19:52:43;;;;;;;17.77;3.65;;;16.80;99.90;;;16.19;100.00;100705.91;5197317;22;20035;-74
2022/09/08 19:54:51;;;;;;;18.50;2.95;;;16.80;99.90;;;16.01;100.00;100685.09;5250443;22;20013;-74
2022/09/08 19:56:55;;;;;;;16.17;3.90;;;16.80;99.90;;;16.01;100.00;100687.78;5250343;22;20085;-74
2022/09/08 19:59:36;;;;;;;15.68;3.20;;;16.80;99.90;;;16.08;100.00;100719.75;5222767;22;20077;-74
2022/09/08 20:02:01;;;;;;;11.82;2.95;;;16.80;99.90;;;16.01;100.00;100713.56;5250281;22;19999;-74
2022/09/08 20:04:16;;;;;;;17.88;4.55;;;16.60;99.90;;;15.77;100.00;100690.84;5222264;22;20516;-74
2022/09/08 20:06:27;;;;;;;18.08;3.00;;;16.60;99.90;;;15.83;100.00;100710.56;5249833;22;20048;-74
2022/09/08 20:08:32;;;;;;;14.02;3.45;;;16.60;99.90;;;15.90;100.00;100722.06;5223117;22;20471;-74
2022/09/08 20:10:33;;;;;;;13.63;3.60;;;16.60;99.90;;;15.92;100.00;100720.84;5250388;22;20372;-74
2022/09/08 20:12:34;;;;;;;13.23;3.53;;;16.60;99.90;;;15.91;100.00;100713.91;5249964;22;20023;-74
2022/09/08 20:14:59;;;;;;;17.40;4.65;;;16.70;99.90;;;15.92;100.00;100710.19;5222797;22;20007;-74
2022/09/08 20:17:05;;;;;;;15.32;2.90;;;16.70;99.90;;;15.93;100.00;100703.06;5224747;22;20006;-74
2022/09/08 20:19:17;;;;;;;15.52;3.55;;;16.70;99.90;;;15.99;100.00;100708.44;5222440;22;20012;-74
2022/09/08 20:21:51;;;;;;;18.00;3.67;;;16.70;99.90;;;16.06;100.00;100729.78;5222447;22;20510;-74
2022/09/08 20:24:20;;;;;;;15.05;3.50;;;16.70;99.90;;;15.99;100.00;100734.22;5197479;22;20007;-74
2022/09/08 20:26:30;;;;;;;16.55;3.67;;;16.70;99.90;;;16.00;100.00;100734.03;5223479;22;20011;-74
2022/09/08 20:28:41;;;;;;;23.55;4.88;;;16.70;99.90;;;15.99;100.00;100732.38;5223070;22;20000;-74
2022/09/08 20:30:59;;;;;;;11.35;3.50;;;16.60;99.90;;;15.90;100.00;100730.88;5222776;22;20090;-74
2022/09/08 20:33:18;;;;;;;12.73;4.18;;;16.50;99.90;;;15.61;100.00;100711.56;5250035;22;20335;-74
2022/09/08 20:35:32;;;;;;;16.63;3.83;;;16.50;99.90;;;15.73;100.00;100741.94;5221371;22;20004;-74
2022/09/08 20:37:43;;;;;;;11.68;2.70;;;16.40;99.90;;;15.52;100.00;100723.31;5249833;22;20487;-74
2022/09/08 20:40:26;;;;;;;15.50;3.58;;;16.30;99.90;;;15.43;100.00;100719.94;5249731;22;20076;-74
2022/09/08 20:42:47;;;;;;;21.55;3.88;;;16.30;99.90;;;15.46;100.00;100738.97;5222481;22;20008;-74
2022/09/08 20:45:26;;;;;;;16.67;3.22;;;16.20;99.90;;;15.47;100.00;100751.28;5197072;22;20136;-74
2022/09/08 20:47:34;;;;;;;15.60;3.80;;;16.20;99.90;;;15.39;100.00;100742.56;5231020;22;20011;-74
2022/09/08 20:50:02;;;;;;;23.48;4.65;;;16.10;99.90;;;15.35;100.00;100744.75;5197086;22;20062;-74
2022/09/08 20:52:39;;;;;;;18.15;3.22;;;16.10;99.90;;;15.29;100.00;100737.53;5224450;22;20003;-74
2022/09/08 20:55:07;;;;;;;10.30;2.55;;;16.00;99.90;;;15.28;100.00;100740.41;5249891;22;20441;-74
2022/09/08 20:57:44;;;;;;;17.35;3.20;;;16.00;99.90;;;15.32;100.00;100747.00;5249970;22;19999;-74
2022/09/08 20:59:52;;;;;;;14.07;3.35;;;15.90;99.90;;;15.16;100.00;100742.72;5222178;22;20039;-74
2022/09/08 21:02:12;;;;;;;23.17;4.15;;;15.90;99.90;;;15.32;100.00;100761.09;5223645;22;19999;-74
2022/09/08 21:04:37;;;;;;;12.57;3.25;;;15.90;99.90;;;15.27;100.00;100741.41;5251667;22;20007;-74
2022/09/08 21:06:43;;;;;;;21.88;3.45;;;15.90;99.90;;;15.29;100.00;100752.69;5224596;22;20003;-74
2022/09/08 21:08:53;;;;;;;22.35;3.78;;;15.90;99.90;;;15.12;100.00;100736.09;5251729;22;20344;-74
2022/09/08 21:11:09;;;;;;;17.70;3.75;;;15.90;99.90;;;15.13;100.00;100740.44;5224063;22;20074;-74
2022/09/08 21:13:23;;;;;;;16.52;4.50;;;15.90;99.90;;;15.18;100.00;100747.81;5199552;22;20091;-74
2022/09/08 21:15:53;;;;;;;16.38;3.85;;;15.80;99.90;;;15.17;100.00;100751.50;5198888;22;20011;-74
2022/09/08 21:18:08;;;;;;;13.05;3.05;;;15.80;99.90;;;15.06;100.00;100749.31;5202318;22;20437;-74
2022/09/08 21:20:27;;;;;;;18.33;3.72;;;15.80;99.90;;;15.12;100.00;100757.38;5226480;22;20344;-74
2022/09/08 21:22:50;;;;;;;13.65;3.75;;;15.70;99.90;;;15.12;100.00;100760.03;5199337;22;20007;-74
2022/09/08 21:25:24;;;;;;;16.73;3.53;;;15.70;99.90;;;15.21;100.00;100761.56;5251086;22;20006;-74
2022/09/08 21:27:42;;;;;;;12.20;3.80;;;15.70;99.90;;;14.94;100.00;100739.16;5251011;22;20011;-74
2022/09/08 21:30:11;;;;;;;10.90;3.60;;;15.80;99.90;;;15.04;100.00;100756.66;5226121;22;20017;-74
2022/09/08 21:32:33;;;;;;;24.50;4.05;;;15.70;99.90;;;15.20;100.00;100773.19;5251108;22;20014;-74
2022/09/08 21:34:52;;;;;;;14.48;3.17;;;15.80;99.90;;;15.02;100.00;100751.53;5250984;22;20085;-74
2022/09/08 21:37:26;;;;;;;15.00;3.22;;;15.80;99.90;;;15.16;100.00;100776.44;5225473;22;20445;-74
2022/09/08 21:40:02;;;;;;;16.70;3.70;;;15.80;99.90;;;14.96;100.00;100749.59;5187222;22;20043;-74
2022/09/08 21:42:04;;;;;;;25.08;4.30;;;15.80;99.90;;;15.00;100.00;100764.16;5186662;22;20455;-74
2022/09/08 21:44:26;;;;;;;19.98;3.40;;;15.70;99.90;;;15.06;100.00;100766.06;5224142;22;20011;-74
2022/09/08 21:46:32;;;;;;;12.77;2.85;;;15.70;99.90;;;15.09;100.00;100779.00;5250991;22;20013;-74
2022/09/08 21:48:36;;;;;;;9.23;3.33;;;15.70;99.90;;;14.98;100.00;100750.25;5250950;22;20007;-74
2022/09/08 21:50:59;;;;;;;21.10;3.72;;;15.80;99.90;;;15.13;100.00;100780.28;5223493;22;20054;-74
2022/09/08 21:53:26;;;;;;;19.23;3.65;;;15.80;99.90;;;15.01;100.00;100757.84;5223150;22;20463;-74
2022/09/08 21:55:45;;;;;;;22.70;4.22;;;15.80;99.90;;;15.06;100.00;100755.44;5223598;22;20129;-74
2022/09/08 21:57:49;;;;;;;17.35;3.35;;;15.80;99.90;;;15.02;100.00;100758.66;5250606;22;20002;-74
2022/09/08 22:00:20;;;;;;;;;;;15.80;99.90;;;15.14;100.00;100781.09;5224005;22;20087;-74
2022/09/08 22:02:49;;;;;;;9.93;3.13;;;15.80;99.90;;;15.15;100.00;100775.59;5226502;22;19910;-74
2022/09/08 22:04:55;;;;;;;17.95;4.30;;;15.80;99.90;;;15.01;100.00;100743.72;5223824;22;20007;-74
2022/09/08 22:06:57;;;;;;;17.75;4.93;;;15.80;99.90;;;15.25;100.00;100778.81;5250877;22;20026;-74
2022/09/08 22:09:14;;;;;;;13.77;4.03;;;15.90;99.90;;;15.48;100.00;100776.84;5223489;22;20007;-74
2022/09/08 22:11:19;;;;;;;16.10;3.45;;;16.00;99.90;;;15.53;100.00;100770.97;5250721;22;20010;-74
2022/09/08 22:13:30;;;;;;;9.30;3.10;;;16.20;99.90;;;15.67;100.00;100774.63;5223938;22;20003;-74
2022/09/08 22:15:34;;;;;;;12.32;3.20;;;16.30;99.90;;;15.73;100.00;100779.19;5197914;22;20090;-74
2022/09/08 22:17:51;;;;;;;9.40;2.35;;;16.30;99.90;;;15.65;100.00;100787.28;5250289;22;20029;-74
2022/09/08 22:20:12;;;;;;;14.07;3.30;;;16.30;99.90;;;15.44;100.00;100780.84;5250389;22;20117;-74
2022/09/08 22:22:25;;;;;;;8.45;3.08;;;16.20;99.90;;;15.26;100.00;100767.13;5199582;22;20010;-74
2022/09/08 22:24:57;;;;;;;14.20;3.78;;;16.10;99.90;;;15.14;100.00;100770.47;5250720;22;20053;-74
2022/09/08 22:27:32;;;;;;;17.08;4.10;;;16.00;99.90;;;15.10;100.00;100783.31;5222968;22;20038;-74
2022/09/08 22:30:16;;;;;;;16.15;3.13;;;15.90;99.90;;;15.03;100.00;100781.56;5223565;22;20030;-74
2022/09/08 22:32:59;;;;;;;11.65;2.45;;;15.80;99.90;;;15.19;100.00;100794.66;5223571;22;20031;-74
2022/09/08 22:35:30;;;;;;;12.15;3.97;;;15.80;99.90;;;15.10;100.00;100775.34;5223059;22;20011;-74
2022/09/08 22:37:50;;;;;;;16.73;3.60;;;15.90;99.90;;;15.18;100.00;100777.88;5223464;22;20003;-74
2022/09/08 22:40:16;;;;;;;10.55;3.03;;;15.90;99.90;;;15.25;100.00;100786.78;5198667;22;20008;-74
2022/09/08 22:42:52;;;;;;;13.95;3.10;;;15.90;99.90;;;15.07;100.00;100774.88;5224802;22;20011;-74
2022/09/08 22:44:59;;;;;;;20.65;4.07;;;15.80;99.90;;;15.07;100.00;100773.03;5223332;22;20003;-74
2022/09/08 22:47:37;;;;;;;20.15;3.80;;;15.80;99.90;;;15.02;100.00;100775.44;5224629;22;20003;-74
2022/09/08 22:49:46;;;;;;;13.23;3.33;;;15.80;99.90;;;15.04;100.00;100776.06;5223038;22;20037;-74
2022/09/08 22:52:10;;;;;;;14.13;3.53;;;15.80;99.90;;;15.20;100.00;100791.78;5223248;22;20003;-74
2022/09/08 22:54:42;;;;;;;17.03;2.90;;;15.80;99.90;;;15.13;100.00;100782.94;5194882;22;20010;-74
2022/09/08 22:56:56;;;;;;;16.35;3.88;;;15.90;99.90;;;15.23;100.00;100790.63;5223137;22;20371;-74
2022/09/08 22:58:59;;;;;;;12.68;3.08;;;15.90;99.90;;;15.13;100.00;100768.81;5223342;22;20011;-74
2022/09/08 23:01:07;;;;;;;16.15;3.33;;;15.90;99.90;;;15.16;100.00;100777.25;5224955;22;20003;-74
2022/09/08 23:03:27;;;;;;;14.43;5.10;;;15.90;99.90;;;15.26;100.00;100784.94;5223093;22;19999;-73
2022/09/08 23:05:45;;;;;;;12.27;3.55;;;15.90;99.90;;;15.02;100.00;100764.81;5224207;22;20498;-74
2022/09/08 23:07:51;;;;;;;14.40;3.50;;;15.80;99.90;;;15.11;100.00;100786.78;5223263;22;20076;-74
2022/09/08 23:10:17;;;;;;;21.13;4.47;;;15.80;99.90;;;14.94;100.00;100767.53;5224481;22;20003;-74
2022/09/08 23:13:09;;;;;;;11.98;3.65;;;15.70;99.90;;;15.00;100.00;100795.19;5222932;22;20026;-74
2022/09/08 23:15:19;;;;;;;14.35;3.50;;;15.70;99.90;;;15.02;100.00;100796.69;5219699;22;20041;-74
2022/09/08 23:18:06;;;;;;;19.75;3.33;;;15.70;99.90;;;15.04;100.00;100777.91;5198074;22;20012;-74
2022/09/08 23:20:26;;;;;;;20.08;3.35;;;15.80;99.90;;;15.21;100.00;100789.97;5222571;22;20007;-74
2022/09/08 23:22:58;;;;;;;19.10;3.70;;;15.90;99.90;;;15.08;100.00;100764.06;5224376;22;20010;-74
2022/09/08 23:25:29;;;;;;;18.23;4.15;;;15.90;99.90;;;15.30;100.00;100787.03;5139374;22;20015;-74
2022/09/08 23:27:55;;;;;;;18.38;3.53;;;16.00;99.90;;;15.29;100.00;100779.25;5244212;22;20021;-74
2022/09/08 23:30:14;;;;;;;13.70;3.05;;;16.10;99.90;;;15.31;100.00;100777.22;5224146;22;20031;-74
2022/09/08 23:32:42;;;;;;;12.00;3.17;;;16.10;99.90;;;15.44;100.00;100791.50;5223334;22;20347;-74
2022/09/08 23:35:00;;;;;;;15.45;3.25;;;16.10;99.90;;;15.40;100.00;100771.63;5249942;22;20013;-74
2022/09/08 23:37:10;;;;;;;24.77;4.53;;;16.20;99.90;;;15.47;100.00;100785.84;5198931;22;20011;-74